sensor_id;sensor_type;location;lat;lon;timestamp;P1;durP1;ratioP1;P2;durP2;ratioP2
5704;SDS011;2877;48.238;11.160;2022-09-09T00:04:32;1.40;;;1.30;;
5704;SDS011;2877;48.238;11.160;2022-09-09T00:10:06;1.60;;;1.50;;
5704;SDS011;2877;48.238;11.160;2022-09-09T00:15:48;1.50;;;1.40;;
5704;SDS011;2877;48.238;11.160;2022-09-09T00:18:46;2.40;;;1.27;;
5704;SDS011;2877;48.238;11.160;2022-09-09T00:21:35;2.80;;;1.33;;
5704;SDS011;2877;48.238;11.160;2022-09-09T00:26:55;1.50;;;1.40;;
5704;SDS011;2877;48.238;11.160;2022-09-09T00:30:24;2.17;;;1.53;;
5704;SDS011;2877;48.238;11.160;2022-09-09T00:32:46;1.70;;;1.60;;
5704;SDS011;2877;48.238;11.160;2022-09-09T00:35:16;4.50;;;1.50;;
5704;SDS011;2877;48.238;11.160;2022-09-09T00:37:43;1.47;;;1.20;;
5704;SDS011;2877;48.238;11.160;2022-09-09T00:40:34;2.43;;;1.27;;
5704;SDS011;2877;48.238;11.160;2022-09-09T00:54:28;3.43;;;1.40;;
5704;SDS011;2877;48.238;11.160;2022-09-09T01:08:28;1.23;;;1.13;;
5704;SDS011;2877;48.238;11.160;2022-09-09T01:11:23;1.90;;;1.70;;
5704;SDS011;2877;48.238;11.160;2022-09-09T01:16:42;2.90;;;2.07;;
5704;SDS011;2877;48.238;11.160;2022-09-09T01:19:10;1.30;;;1.20;;
5704;SDS011;2877;48.238;11.160;2022-09-09T01:21:50;2.23;;;1.30;;
5704;SDS011;2877;48.238;11.160;2022-09-09T01:27:05;1.57;;;1.10;;
5704;SDS011;2877;48.238;11.160;2022-09-09T01:29:32;1.53;;;1.43;;
5704;SDS011;2877;48.238;11.160;2022-09-09T01:31:59;1.20;;;1.20;;
5704;SDS011;2877;48.238;11.160;2022-09-09T01:34:48;1.37;;;1.27;;
5704;SDS011;2877;48.238;11.160;2022-09-09T01:37:16;2.83;;;1.90;;
5704;SDS011;2877;48.238;11.160;2022-09-09T01:39:42;1.07;;;1.07;;
5704;SDS011;2877;48.238;11.160;2022-09-09T01:42:09;1.60;;;1.27;;
5704;SDS011;2877;48.238;11.160;2022-09-09T01:44:38;1.67;;;1.23;;
5704;SDS011;2877;48.238;11.160;2022-09-09T01:47:04;1.93;;;1.43;;
5704;SDS011;2877;48.238;11.160;2022-09-09T01:49:31;1.30;;;1.13;;
5704;SDS011;2877;48.238;11.160;2022-09-09T01:51:57;1.50;;;1.40;;
5704;SDS011;2877;48.238;11.160;2022-09-09T01:54:25;2.13;;;1.30;;
5704;SDS011;2877;48.238;11.160;2022-09-09T01:56:58;3.13;;;1.30;;
5704;SDS011;2877;48.238;11.160;2022-09-09T02:02:24;1.40;;;1.30;;
5704;SDS011;2877;48.238;11.160;2022-09-09T02:05:01;1.43;;;1.20;;
5704;SDS011;2877;48.238;11.160;2022-09-09T02:10:22;1.53;;;1.20;;
5704;SDS011;2877;48.238;11.160;2022-09-09T02:13:08;1.50;;;1.40;;
5704;SDS011;2877;48.238;11.160;2022-09-09T02:15:38;1.57;;;1.27;;
5704;SDS011;2877;48.238;11.160;2022-09-09T02:18:29;4.67;;;1.20;;
5704;SDS011;2877;48.238;11.160;2022-09-09T02:20:59;1.50;;;1.40;;
5704;SDS011;2877;48.238;11.160;2022-09-09T02:23:27;1.50;;;1.40;;
5704;SDS011;2877;48.238;11.160;2022-09-09T02:25:53;1.60;;;1.50;;
5704;SDS011;2877;48.238;11.160;2022-09-09T02:28:23;2.90;;;1.87;;
5704;SDS011;2877;48.238;11.160;2022-09-09T02:30:52;1.50;;;1.33;;
5704;SDS011;2877;48.238;11.160;2022-09-09T02:33:20;4.40;;;1.73;;
5704;SDS011;2877;48.238;11.160;2022-09-09T02:35:51;3.37;;;1.17;;
5704;SDS011;2877;48.238;11.160;2022-09-09T02:38:21;1.40;;;1.27;;
5704;SDS011;2877;48.238;11.160;2022-09-09T02:40:51;3.80;;;1.70;;
5704;SDS011;2877;48.238;11.160;2022-09-09T02:43:17;1.70;;;1.60;;
5704;SDS011;2877;48.238;11.160;2022-09-09T02:51:18;1.57;;;1.40;;
5704;SDS011;2877;48.238;11.160;2022-09-09T02:56:44;8.60;;;1.60;;
5704;SDS011;2877;48.238;11.160;2022-09-09T02:59:16;1.80;;;1.70;;
5704;SDS011;2877;48.238;11.160;2022-09-09T03:01:43;2.23;;;1.70;;
5704;SDS011;2877;48.238;11.160;2022-09-09T03:04:09;1.40;;;1.30;;
5704;SDS011;2877;48.238;11.160;2022-09-09T03:06:34;1.60;;;1.30;;
5704;SDS011;2877;48.238;11.160;2022-09-09T03:09:00;1.23;;;1.23;;
5704;SDS011;2877;48.238;11.160;2022-09-09T03:11:27;4.33;;;1.90;;
5704;SDS011;2877;48.238;11.160;2022-09-09T03:13:53;7.60;;;1.70;;
5704;SDS011;2877;48.238;11.160;2022-09-09T03:16:21;2.30;;;1.40;;
5704;SDS011;2877;48.238;11.160;2022-09-09T03:18:49;4.47;;;2.57;;
5704;SDS011;2877;48.238;11.160;2022-09-09T03:21:15;2.20;;;1.53;;
5704;SDS011;2877;48.238;11.160;2022-09-09T03:23:41;2.80;;;1.90;;
5704;SDS011;2877;48.238;11.160;2022-09-09T03:26:07;9.33;;;1.90;;
5704;SDS011;2877;48.238;11.160;2022-09-09T03:28:33;1.77;;;1.67;;
5704;SDS011;2877;48.238;11.160;2022-09-09T03:31:02;1.60;;;1.50;;
5704;SDS011;2877;48.238;11.160;2022-09-09T03:33:29;1.67;;;1.40;;
5704;SDS011;2877;48.238;11.160;2022-09-09T03:35:56;1.77;;;1.60;;
5704;SDS011;2877;48.238;11.160;2022-09-09T03:38:25;2.53;;;1.63;;
5704;SDS011;2877;48.238;11.160;2022-09-09T03:40:51;2.53;;;1.50;;
5704;SDS011;2877;48.238;11.160;2022-09-09T03:43:23;1.50;;;1.40;;
5704;SDS011;2877;48.238;11.160;2022-09-09T03:45:50;4.47;;;1.57;;
5704;SDS011;2877;48.238;11.160;2022-09-09T03:48:16;3.57;;;1.70;;
5704;SDS011;2877;48.238;11.160;2022-09-09T03:50:49;2.90;;;1.60;;
5704;SDS011;2877;48.238;11.160;2022-09-09T03:53:16;5.03;;;1.50;;
5704;SDS011;2877;48.238;11.160;2022-09-09T03:55:47;1.57;;;1.47;;
5704;SDS011;2877;48.238;11.160;2022-09-09T03:58:19;1.80;;;1.70;;
5704;SDS011;2877;48.238;11.160;2022-09-09T04:00:56;3.07;;;1.90;;
5704;SDS011;2877;48.238;11.160;2022-09-09T04:03:24;5.90;;;1.60;;
5704;SDS011;2877;48.238;11.160;2022-09-09T04:05:53;3.30;;;1.77;;
5704;SDS011;2877;48.238;11.160;2022-09-09T04:08:19;1.37;;;1.33;;
5704;SDS011;2877;48.238;11.160;2022-09-09T04:10:47;3.40;;;2.10;;
5704;SDS011;2877;48.238;11.160;2022-09-09T04:13:14;3.70;;;1.83;;
5704;SDS011;2877;48.238;11.160;2022-09-09T04:15:41;3.70;;;1.97;;
5704;SDS011;2877;48.238;11.160;2022-09-09T04:18:08;3.00;;;1.77;;
5704;SDS011;2877;48.238;11.160;2022-09-09T04:20:34;2.30;;;1.73;;
5704;SDS011;2877;48.238;11.160;2022-09-09T04:23:00;1.90;;;1.80;;
5704;SDS011;2877;48.238;11.160;2022-09-09T04:25:26;4.03;;;2.00;;
5704;SDS011;2877;48.238;11.160;2022-09-09T04:27:55;2.27;;;2.10;;
5704;SDS011;2877;48.238;11.160;2022-09-09T04:30:22;2.20;;;2.00;;
5704;SDS011;2877;48.238;11.160;2022-09-09T04:32:48;2.27;;;2.13;;
5704;SDS011;2877;48.238;11.160;2022-09-09T04:35:14;3.10;;;1.83;;
5704;SDS011;2877;48.238;11.160;2022-09-09T04:37:39;1.83;;;1.73;;
5704;SDS011;2877;48.238;11.160;2022-09-09T04:40:06;1.80;;;1.70;;
5704;SDS011;2877;48.238;11.160;2022-09-09T04:42:37;2.27;;;2.03;;
5704;SDS011;2877;48.238;11.160;2022-09-09T04:45:04;3.20;;;2.03;;
5704;SDS011;2877;48.238;11.160;2022-09-09T04:47:31;1.90;;;1.80;;
5704;SDS011;2877;48.238;11.160;2022-09-09T04:49:56;4.27;;;1.57;;
5704;SDS011;2877;48.238;11.160;2022-09-09T04:52:22;5.40;;;1.90;;
5704;SDS011;2877;48.238;11.160;2022-09-09T04:54:47;1.97;;;1.57;;
5704;SDS011;2877;48.238;11.160;2022-09-09T04:57:13;5.80;;;1.73;;
5704;SDS011;2877;48.238;11.160;2022-09-09T04:59:39;1.77;;;1.67;;
5704;SDS011;2877;48.238;11.160;2022-09-09T05:02:05;3.67;;;2.20;;
5704;SDS011;2877;48.238;11.160;2022-09-09T05:04:31;1.83;;;1.50;;
5704;SDS011;2877;48.238;11.160;2022-09-09T05:06:58;2.40;;;1.70;;
5704;SDS011;2877;48.238;11.160;2022-09-09T05:09:23;10.13;;;2.07;;
5704;SDS011;2877;48.238;11.160;2022-09-09T05:11:49;4.10;;;1.70;;
5704;SDS011;2877;48.238;11.160;2022-09-09T05:14:15;3.40;;;2.10;;
5704;SDS011;2877;48.238;11.160;2022-09-09T05:16:41;4.57;;;1.50;;
5704;SDS011;2877;48.238;11.160;2022-09-09T05:19:07;2.47;;;1.40;;
5704;SDS011;2877;48.238;11.160;2022-09-09T05:21:33;1.63;;;1.27;;
5704;SDS011;2877;48.238;11.160;2022-09-09T05:23:59;1.40;;;1.40;;
5704;SDS011;2877;48.238;11.160;2022-09-09T05:26:25;1.30;;;1.30;;
5704;SDS011;2877;48.238;11.160;2022-09-09T05:28:51;1.70;;;1.60;;
5704;SDS011;2877;48.238;11.160;2022-09-09T05:31:17;1.53;;;1.43;;
5704;SDS011;2877;48.238;11.160;2022-09-09T05:33:44;1.30;;;1.20;;
5704;SDS011;2877;48.238;11.160;2022-09-09T05:36:12;3.23;;;1.43;;
5704;SDS011;2877;48.238;11.160;2022-09-09T05:38:39;1.47;;;1.00;;
5704;SDS011;2877;48.238;11.160;2022-09-09T05:41:05;1.40;;;1.30;;
5704;SDS011;2877;48.238;11.160;2022-09-09T05:43:32;1.27;;;1.00;;
5704;SDS011;2877;48.238;11.160;2022-09-09T05:48:29;3.70;;;1.43;;
5704;SDS011;2877;48.238;11.160;2022-09-09T05:50:56;3.47;;;1.70;;
5704;SDS011;2877;48.238;11.160;2022-09-09T05:53:22;1.57;;;1.30;;
5704;SDS011;2877;48.238;11.160;2022-09-09T05:55:47;4.63;;;1.57;;
5704;SDS011;2877;48.238;11.160;2022-09-09T05:58:13;4.43;;;1.60;;
5704;SDS011;2877;48.238;11.160;2022-09-09T06:00:40;3.67;;;1.57;;
5704;SDS011;2877;48.238;11.160;2022-09-09T06:03:05;3.63;;;1.57;;
5704;SDS011;2877;48.238;11.160;2022-09-09T06:05:31;6.00;;;1.13;;
5704;SDS011;2877;48.238;11.160;2022-09-09T06:07:58;2.00;;;1.10;;
5704;SDS011;2877;48.238;11.160;2022-09-09T06:10:23;1.40;;;1.30;;
5704;SDS011;2877;48.238;11.160;2022-09-09T06:12:51;1.80;;;1.17;;
5704;SDS011;2877;48.238;11.160;2022-09-09T06:15:17;1.53;;;1.43;;
5704;SDS011;2877;48.238;11.160;2022-09-09T06:17:43;1.43;;;1.33;;
5704;SDS011;2877;48.238;11.160;2022-09-09T06:20:10;5.00;;;1.60;;
5704;SDS011;2877;48.238;11.160;2022-09-09T06:22:38;1.30;;;1.20;;
5704;SDS011;2877;48.238;11.160;2022-09-09T06:25:05;1.30;;;1.20;;
5704;SDS011;2877;48.238;11.160;2022-09-09T06:27:32;6.63;;;1.73;;
5704;SDS011;2877;48.238;11.160;2022-09-09T06:29:58;2.80;;;1.53;;
5704;SDS011;2877;48.238;11.160;2022-09-09T06:32:23;5.30;;;1.70;;
5704;SDS011;2877;48.238;11.160;2022-09-09T06:34:49;1.33;;;1.23;;
5704;SDS011;2877;48.238;11.160;2022-09-09T06:37:15;1.60;;;1.30;;
5704;SDS011;2877;48.238;11.160;2022-09-09T06:39:41;3.20;;;1.43;;
5704;SDS011;2877;48.238;11.160;2022-09-09T06:42:06;1.33;;;1.33;;
5704;SDS011;2877;48.238;11.160;2022-09-09T06:44:33;2.97;;;1.83;;
5704;SDS011;2877;48.238;11.160;2022-09-09T06:46:59;3.33;;;1.50;;
5704;SDS011;2877;48.238;11.160;2022-09-09T06:49:24;1.60;;;1.50;;
5704;SDS011;2877;48.238;11.160;2022-09-09T06:51:50;1.53;;;1.40;;
5704;SDS011;2877;48.238;11.160;2022-09-09T06:54:17;1.70;;;1.23;;
5704;SDS011;2877;48.238;11.160;2022-09-09T06:56:43;1.63;;;1.53;;
5704;SDS011;2877;48.238;11.160;2022-09-09T06:59:10;8.00;;;1.90;;
5704;SDS011;2877;48.238;11.160;2022-09-09T07:01:41;1.77;;;1.63;;
5704;SDS011;2877;48.238;11.160;2022-09-09T07:04:16;2.03;;;1.83;;
5704;SDS011;2877;48.238;11.160;2022-09-09T07:06:45;6.70;;;1.90;;
5704;SDS011;2877;48.238;11.160;2022-09-09T07:09:12;2.90;;;2.00;;
5704;SDS011;2877;48.238;11.160;2022-09-09T07:11:49;6.90;;;2.10;;
5704;SDS011;2877;48.238;11.160;2022-09-09T07:14:17;1.57;;;1.50;;
5704;SDS011;2877;48.238;11.160;2022-09-09T07:16:44;1.73;;;1.60;;
5704;SDS011;2877;48.238;11.160;2022-09-09T07:19:11;2.40;;;1.90;;
5704;SDS011;2877;48.238;11.160;2022-09-09T07:21:37;2.80;;;1.80;;
5704;SDS011;2877;48.238;11.160;2022-09-09T07:24:05;1.80;;;1.70;;
5704;SDS011;2877;48.238;11.160;2022-09-09T07:26:32;1.70;;;1.60;;
5704;SDS011;2877;48.238;11.160;2022-09-09T07:28:58;5.10;;;1.70;;
5704;SDS011;2877;48.238;11.160;2022-09-09T07:31:28;2.00;;;1.50;;
5704;SDS011;2877;48.238;11.160;2022-09-09T07:33:55;7.93;;;2.20;;
5704;SDS011;2877;48.238;11.160;2022-09-09T07:36:22;1.50;;;1.40;;
5704;SDS011;2877;48.238;11.160;2022-09-09T07:38:57;2.87;;;1.57;;
5704;SDS011;2877;48.238;11.160;2022-09-09T07:41:43;2.30;;;1.80;;
5704;SDS011;2877;48.238;11.160;2022-09-09T07:44:15;1.80;;;1.57;;
5704;SDS011;2877;48.238;11.160;2022-09-09T07:46:42;1.87;;;1.77;;
5704;SDS011;2877;48.238;11.160;2022-09-09T07:49:08;2.00;;;1.90;;
5704;SDS011;2877;48.238;11.160;2022-09-09T07:51:36;5.90;;;2.30;;
5704;SDS011;2877;48.238;11.160;2022-09-09T07:54:05;2.50;;;2.10;;
5704;SDS011;2877;48.238;11.160;2022-09-09T07:56:34;4.87;;;2.00;;
5704;SDS011;2877;48.238;11.160;2022-09-09T07:59:00;3.30;;;1.83;;
5704;SDS011;2877;48.238;11.160;2022-09-09T08:01:33;4.73;;;1.97;;
5704;SDS011;2877;48.238;11.160;2022-09-09T08:04:04;3.07;;;1.90;;
5704;SDS011;2877;48.238;11.160;2022-09-09T08:06:33;2.90;;;1.80;;
5704;SDS011;2877;48.238;11.160;2022-09-09T08:09:01;3.60;;;1.70;;
5704;SDS011;2877;48.238;11.160;2022-09-09T08:11:27;2.13;;;1.90;;
5704;SDS011;2877;48.238;11.160;2022-09-09T08:13:54;2.57;;;1.73;;
5704;SDS011;2877;48.238;11.160;2022-09-09T08:16:21;2.97;;;1.93;;
5704;SDS011;2877;48.238;11.160;2022-09-09T08:18:49;2.70;;;1.90;;
5704;SDS011;2877;48.238;11.160;2022-09-09T08:21:17;3.17;;;1.80;;
5704;SDS011;2877;48.238;11.160;2022-09-09T08:23:45;3.30;;;1.87;;
5704;SDS011;2877;48.238;11.160;2022-09-09T08:28:38;1.50;;;1.40;;
5704;SDS011;2877;48.238;11.160;2022-09-09T08:31:15;2.50;;;1.60;;
5704;SDS011;2877;48.238;11.160;2022-09-09T08:33:43;1.63;;;1.40;;
5704;SDS011;2877;48.238;11.160;2022-09-09T08:36:11;4.40;;;1.47;;
5704;SDS011;2877;48.238;11.160;2022-09-09T08:38:40;2.73;;;1.60;;
5704;SDS011;2877;48.238;11.160;2022-09-09T08:43:41;1.80;;;1.50;;
5704;SDS011;2877;48.238;11.160;2022-09-09T08:46:22;2.10;;;1.60;;
5704;SDS011;2877;48.238;11.160;2022-09-09T08:49:05;1.73;;;1.53;;
5704;SDS011;2877;48.238;11.160;2022-09-09T08:52:03;2.00;;;1.37;;
5704;SDS011;2877;48.238;11.160;2022-09-09T08:54:38;2.33;;;1.53;;
5704;SDS011;2877;48.238;11.160;2022-09-09T08:57:05;1.70;;;1.60;;
5704;SDS011;2877;48.238;11.160;2022-09-09T08:59:43;1.63;;;1.50;;
5704;SDS011;2877;48.238;11.160;2022-09-09T09:02:15;1.80;;;1.40;;
5704;SDS011;2877;48.238;11.160;2022-09-09T09:05:05;2.57;;;1.20;;
5704;SDS011;2877;48.238;11.160;2022-09-09T09:13:13;2.20;;;1.27;;
5704;SDS011;2877;48.238;11.160;2022-09-09T09:15:47;1.53;;;1.30;;
5704;SDS011;2877;48.238;11.160;2022-09-09T09:18:17;2.63;;;1.43;;
5704;SDS011;2877;48.238;11.160;2022-09-09T09:23:21;1.73;;;1.30;;
5704;SDS011;2877;48.238;11.160;2022-09-09T09:25:49;3.37;;;1.30;;
5704;SDS011;2877;48.238;11.160;2022-09-09T09:28:18;2.10;;;1.43;;
5704;SDS011;2877;48.238;11.160;2022-09-09T09:30:57;1.20;;;1.10;;
5704;SDS011;2877;48.238;11.160;2022-09-09T09:33:49;2.87;;;1.43;;
5704;SDS011;2877;48.238;11.160;2022-09-09T09:36:17;1.40;;;1.30;;
5704;SDS011;2877;48.238;11.160;2022-09-09T09:41:41;4.30;;;1.23;;
5704;SDS011;2877;48.238;11.160;2022-09-09T09:47:04;1.97;;;1.13;;
5704;SDS011;2877;48.238;11.160;2022-09-09T09:49:39;4.30;;;1.33;;
5704;SDS011;2877;48.238;11.160;2022-09-09T09:52:15;1.37;;;0.80;;
5704;SDS011;2877;48.238;11.160;2022-09-09T09:54:45;5.93;;;1.10;;
5704;SDS011;2877;48.238;11.160;2022-09-09T09:57:11;2.97;;;1.70;;
5704;SDS011;2877;48.238;11.160;2022-09-09T09:59:39;1.63;;;1.13;;
5704;SDS011;2877;48.238;11.160;2022-09-09T10:02:22;1.77;;;1.20;;
5704;SDS011;2877;48.238;11.160;2022-09-09T10:05:13;1.63;;;1.00;;
5704;SDS011;2877;48.238;11.160;2022-09-09T10:07:39;2.00;;;1.33;;
5704;SDS011;2877;48.238;11.160;2022-09-09T10:10:05;4.27;;;1.27;;
5704;SDS011;2877;48.238;11.160;2022-09-09T10:17:51;2.03;;;1.13;;
5704;SDS011;2877;48.238;11.160;2022-09-09T10:34:39;8.27;;;1.13;;
5704;SDS011;2877;48.238;11.160;2022-09-09T10:37:27;3.13;;;1.00;;
5704;SDS011;2877;48.238;11.160;2022-09-09T10:42:55;4.20;;;1.23;;
5704;SDS011;2877;48.238;11.160;2022-09-09T10:51:14;2.40;;;0.80;;
5704;SDS011;2877;48.238;11.160;2022-09-09T10:56:42;1.03;;;0.77;;
5704;SDS011;2877;48.238;11.160;2022-09-09T10:59:16;3.50;;;1.27;;
5704;SDS011;2877;48.238;11.160;2022-09-09T11:01:49;1.87;;;1.00;;
5704;SDS011;2877;48.238;11.160;2022-09-09T11:04:35;2.93;;;0.87;;
5704;SDS011;2877;48.238;11.160;2022-09-09T11:07:21;2.70;;;0.70;;
5704;SDS011;2877;48.238;11.160;2022-09-09T11:10:19;1.93;;;0.90;;
5704;SDS011;2877;48.238;11.160;2022-09-09T11:13:05;1.87;;;1.03;;
5704;SDS011;2877;48.238;11.160;2022-09-09T11:15:44;1.60;;;0.80;;
5704;SDS011;2877;48.238;11.160;2022-09-09T11:18:16;5.03;;;1.10;;
5704;SDS011;2877;48.238;11.160;2022-09-09T11:20:47;3.23;;;0.90;;
5704;SDS011;2877;48.238;11.160;2022-09-09T11:23:25;2.27;;;1.10;;
5704;SDS011;2877;48.238;11.160;2022-09-09T11:25:59;3.43;;;0.93;;
5704;SDS011;2877;48.238;11.160;2022-09-09T11:31:35;3.27;;;1.10;;
5704;SDS011;2877;48.238;11.160;2022-09-09T11:36:56;1.20;;;0.70;;
5704;SDS011;2877;48.238;11.160;2022-09-09T11:39:56;3.13;;;0.90;;
5704;SDS011;2877;48.238;11.160;2022-09-09T11:42:45;1.37;;;1.07;;
5704;SDS011;2877;48.238;11.160;2022-09-09T11:45:24;2.00;;;0.97;;
5704;SDS011;2877;48.238;11.160;2022-09-09T11:47:57;2.00;;;1.10;;
5704;SDS011;2877;48.238;11.160;2022-09-09T11:52:50;2.73;;;1.00;;
5704;SDS011;2877;48.238;11.160;2022-09-09T11:55:29;7.93;;;1.20;;
5704;SDS011;2877;48.238;11.160;2022-09-09T11:58:01;4.17;;;1.27;;
5704;SDS011;2877;48.238;11.160;2022-09-09T12:03:55;1.00;;;0.90;;
5704;SDS011;2877;48.238;11.160;2022-09-09T12:05:58;3.20;;;1.00;;
5704;SDS011;2877;48.238;11.160;2022-09-09T12:08:33;5.73;;;1.40;;
5704;SDS011;2877;48.238;11.160;2022-09-09T12:11:02;2.83;;;0.87;;
5704;SDS011;2877;48.238;11.160;2022-09-09T12:13:29;3.80;;;0.90;;
5704;SDS011;2877;48.238;11.160;2022-09-09T12:15:57;2.80;;;0.90;;
5704;SDS011;2877;48.238;11.160;2022-09-09T12:18:34;2.70;;;1.10;;
5704;SDS011;2877;48.238;11.160;2022-09-09T12:24:05;5.03;;;1.37;;
5704;SDS011;2877;48.238;11.160;2022-09-09T12:26:42;1.93;;;1.10;;
5704;SDS011;2877;48.238;11.160;2022-09-09T12:30:15;3.70;;;1.00;;
5704;SDS011;2877;48.238;11.160;2022-09-09T12:32:28;2.77;;;0.90;;
5704;SDS011;2877;48.238;11.160;2022-09-09T12:34:55;2.10;;;0.80;;
5704;SDS011;2877;48.238;11.160;2022-09-09T12:39:59;0.77;;;0.77;;
5704;SDS011;2877;48.238;11.160;2022-09-09T12:42:28;1.80;;;0.70;;
5704;SDS011;2877;48.238;11.160;2022-09-09T12:44:54;4.53;;;1.10;;
5704;SDS011;2877;48.238;11.160;2022-09-09T12:47:24;9.43;;;2.73;;
5704;SDS011;2877;48.238;11.160;2022-09-09T12:50:02;2.80;;;1.20;;
5704;SDS011;2877;48.238;11.160;2022-09-09T12:52:31;3.17;;;1.00;;
5704;SDS011;2877;48.238;11.160;2022-09-09T12:55:01;2.30;;;0.90;;
5704;SDS011;2877;48.238;11.160;2022-09-09T12:57:33;5.13;;;1.00;;
5704;SDS011;2877;48.238;11.160;2022-09-09T13:00:05;1.93;;;0.70;;
5704;SDS011;2877;48.238;11.160;2022-09-09T13:02:35;3.93;;;0.90;;
5704;SDS011;2877;48.238;11.160;2022-09-09T13:05:13;3.20;;;1.03;;
5704;SDS011;2877;48.238;11.160;2022-09-09T13:07:41;2.63;;;0.90;;
5704;SDS011;2877;48.238;11.160;2022-09-09T13:10:10;2.83;;;0.90;;
5704;SDS011;2877;48.238;11.160;2022-09-09T13:12:37;3.23;;;1.10;;
5704;SDS011;2877;48.238;11.160;2022-09-09T13:15:03;2.80;;;0.90;;
5704;SDS011;2877;48.238;11.160;2022-09-09T13:17:35;2.80;;;1.00;;
5704;SDS011;2877;48.238;11.160;2022-09-09T13:20:01;3.23;;;0.93;;
5704;SDS011;2877;48.238;11.160;2022-09-09T13:22:34;3.90;;;1.13;;
5704;SDS011;2877;48.238;11.160;2022-09-09T13:25:06;3.37;;;1.00;;
5704;SDS011;2877;48.238;11.160;2022-09-09T13:27:36;2.13;;;0.70;;
5704;SDS011;2877;48.238;11.160;2022-09-09T13:35:35;1.20;;;0.97;;
5704;SDS011;2877;48.238;11.160;2022-09-09T13:38:20;4.10;;;1.30;;
5704;SDS011;2877;48.238;11.160;2022-09-09T13:40:57;4.57;;;0.93;;
5704;SDS011;2877;48.238;11.160;2022-09-09T13:43:29;4.93;;;0.97;;
5704;SDS011;2877;48.238;11.160;2022-09-09T13:46:02;1.90;;;0.80;;
5704;SDS011;2877;48.238;11.160;2022-09-09T13:48:29;2.73;;;0.97;;
5704;SDS011;2877;48.238;11.160;2022-09-09T13:51:00;3.90;;;1.00;;
5704;SDS011;2877;48.238;11.160;2022-09-09T13:53:29;2.67;;;0.77;;
5704;SDS011;2877;48.238;11.160;2022-09-09T13:55:55;2.30;;;0.70;;
5704;SDS011;2877;48.238;11.160;2022-09-09T13:58:21;2.70;;;0.97;;
5704;SDS011;2877;48.238;11.160;2022-09-09T14:00:48;2.53;;;0.90;;
5704;SDS011;2877;48.238;11.160;2022-09-09T14:03:14;5.20;;;0.90;;
5704;SDS011;2877;48.238;11.160;2022-09-09T14:05:40;1.90;;;1.10;;
5704;SDS011;2877;48.238;11.160;2022-09-09T14:08:07;3.10;;;0.90;;
5704;SDS011;2877;48.238;11.160;2022-09-09T14:10:41;1.60;;;0.67;;
5704;SDS011;2877;48.238;11.160;2022-09-09T14:13:06;3.33;;;0.90;;
5704;SDS011;2877;48.238;11.160;2022-09-09T14:15:33;2.87;;;0.70;;
5704;SDS011;2877;48.238;11.160;2022-09-09T14:17:58;3.13;;;0.90;;
5704;SDS011;2877;48.238;11.160;2022-09-09T14:20:24;2.93;;;0.73;;
5704;SDS011;2877;48.238;11.160;2022-09-09T14:22:49;1.90;;;0.70;;
5704;SDS011;2877;48.238;11.160;2022-09-09T14:25:15;2.70;;;1.23;;
5704;SDS011;2877;48.238;11.160;2022-09-09T14:27:41;3.40;;;0.90;;
5704;SDS011;2877;48.238;11.160;2022-09-09T14:30:07;1.47;;;0.90;;
5704;SDS011;2877;48.238;11.160;2022-09-09T14:32:33;3.40;;;0.80;;
5704;SDS011;2877;48.238;11.160;2022-09-09T14:34:59;1.23;;;0.70;;
5704;SDS011;2877;48.238;11.160;2022-09-09T14:37:25;3.27;;;0.87;;
5704;SDS011;2877;48.238;11.160;2022-09-09T14:39:51;1.70;;;0.90;;
5704;SDS011;2877;48.238;11.160;2022-09-09T14:42:18;2.03;;;0.77;;
5704;SDS011;2877;48.238;11.160;2022-09-09T14:44:44;2.00;;;0.77;;
5704;SDS011;2877;48.238;11.160;2022-09-09T14:47:10;2.47;;;0.80;;
5704;SDS011;2877;48.238;11.160;2022-09-09T14:49:35;1.23;;;0.60;;
5704;SDS011;2877;48.238;11.160;2022-09-09T14:52:02;3.13;;;1.07;;
5704;SDS011;2877;48.238;11.160;2022-09-09T14:54:28;1.43;;;0.80;;
5704;SDS011;2877;48.238;11.160;2022-09-09T14:56:54;2.60;;;0.80;;
5704;SDS011;2877;48.238;11.160;2022-09-09T14:59:22;3.60;;;0.90;;
5704;SDS011;2877;48.238;11.160;2022-09-09T15:01:47;0.90;;;0.70;;
5704;SDS011;2877;48.238;11.160;2022-09-09T15:04:13;1.20;;;0.80;;
5704;SDS011;2877;48.238;11.160;2022-09-09T15:06:42;2.60;;;0.80;;
5704;SDS011;2877;48.238;11.160;2022-09-09T15:09:09;1.80;;;0.73;;
5704;SDS011;2877;48.238;11.160;2022-09-09T15:11:36;2.30;;;0.70;;
5704;SDS011;2877;48.238;11.160;2022-09-09T15:14:03;4.30;;;1.20;;
5704;SDS011;2877;48.238;11.160;2022-09-09T15:16:32;1.30;;;0.90;;
5704;SDS011;2877;48.238;11.160;2022-09-09T15:18:58;2.63;;;0.93;;
5704;SDS011;2877;48.238;11.160;2022-09-09T15:21:27;2.13;;;0.83;;
5704;SDS011;2877;48.238;11.160;2022-09-09T15:23:54;1.10;;;0.80;;
5704;SDS011;2877;48.238;11.160;2022-09-09T15:26:21;1.90;;;0.80;;
5704;SDS011;2877;48.238;11.160;2022-09-09T15:28:47;1.40;;;0.70;;
5704;SDS011;2877;48.238;11.160;2022-09-09T15:33:50;0.90;;;0.60;;
5704;SDS011;2877;48.238;11.160;2022-09-09T15:36:21;1.33;;;0.83;;
5704;SDS011;2877;48.238;11.160;2022-09-09T15:38:48;1.53;;;0.90;;
5704;SDS011;2877;48.238;11.160;2022-09-09T15:41:14;2.10;;;0.70;;
5704;SDS011;2877;48.238;11.160;2022-09-09T15:43:45;3.03;;;0.80;;
5704;SDS011;2877;48.238;11.160;2022-09-09T15:48:52;1.53;;;0.70;;
5704;SDS011;2877;48.238;11.160;2022-09-09T15:51:21;2.07;;;0.80;;
5704;SDS011;2877;48.238;11.160;2022-09-09T15:53:48;2.93;;;1.00;;
5704;SDS011;2877;48.238;11.160;2022-09-09T15:56:18;2.00;;;0.90;;
5704;SDS011;2877;48.238;11.160;2022-09-09T15:58:44;0.77;;;0.60;;
5704;SDS011;2877;48.238;11.160;2022-09-09T16:01:10;0.97;;;0.70;;
5704;SDS011;2877;48.238;11.160;2022-09-09T16:03:38;0.70;;;0.70;;
5704;SDS011;2877;48.238;11.160;2022-09-09T16:06:11;1.97;;;0.90;;
5704;SDS011;2877;48.238;11.160;2022-09-09T16:08:39;1.63;;;0.87;;
5704;SDS011;2877;48.238;11.160;2022-09-09T16:11:09;1.10;;;0.80;;
5704;SDS011;2877;48.238;11.160;2022-09-09T16:13:40;1.10;;;0.90;;
5704;SDS011;2877;48.238;11.160;2022-09-09T16:16:07;3.63;;;0.90;;
5704;SDS011;2877;48.238;11.160;2022-09-09T16:18:35;1.47;;;0.60;;
5704;SDS011;2877;48.238;11.160;2022-09-09T16:21:04;1.77;;;0.90;;
5704;SDS011;2877;48.238;11.160;2022-09-09T16:23:34;1.73;;;0.83;;
5704;SDS011;2877;48.238;11.160;2022-09-09T16:26:00;1.27;;;1.17;;
5704;SDS011;2877;48.238;11.160;2022-09-09T16:28:26;1.43;;;0.77;;
5704;SDS011;2877;48.238;11.160;2022-09-09T16:30:52;0.97;;;0.87;;
5704;SDS011;2877;48.238;11.160;2022-09-09T16:33:18;4.30;;;1.10;;
5704;SDS011;2877;48.238;11.160;2022-09-09T16:35:44;1.57;;;0.77;;
5704;SDS011;2877;48.238;11.160;2022-09-09T16:38:09;4.33;;;0.90;;
5704;SDS011;2877;48.238;11.160;2022-09-09T16:40:36;1.57;;;0.77;;
5704;SDS011;2877;48.238;11.160;2022-09-09T16:43:03;3.07;;;0.80;;
5704;SDS011;2877;48.238;11.160;2022-09-09T16:45:30;1.07;;;0.77;;
5704;SDS011;2877;48.238;11.160;2022-09-09T16:47:57;1.50;;;0.90;;
5704;SDS011;2877;48.238;11.160;2022-09-09T16:50:22;5.03;;;0.87;;
5704;SDS011;2877;48.238;11.160;2022-09-09T16:52:48;6.50;;;0.90;;
5704;SDS011;2877;48.238;11.160;2022-09-09T16:55:13;1.10;;;0.70;;
5704;SDS011;2877;48.238;11.160;2022-09-09T16:57:39;0.80;;;0.80;;
5704;SDS011;2877;48.238;11.160;2022-09-09T17:00:06;1.07;;;0.70;;
5704;SDS011;2877;48.238;11.160;2022-09-09T17:02:32;1.47;;;0.80;;
5704;SDS011;2877;48.238;11.160;2022-09-09T17:04:58;0.70;;;0.70;;
5704;SDS011;2877;48.238;11.160;2022-09-09T17:07:24;0.83;;;0.70;;
5704;SDS011;2877;48.238;11.160;2022-09-09T17:09:50;1.57;;;0.60;;
5704;SDS011;2877;48.238;11.160;2022-09-09T17:12:15;2.47;;;0.93;;
5704;SDS011;2877;48.238;11.160;2022-09-09T17:14:42;4.33;;;0.87;;
5704;SDS011;2877;48.238;11.160;2022-09-09T17:17:07;0.93;;;0.60;;
5704;SDS011;2877;48.238;11.160;2022-09-09T17:19:33;6.10;;;3.03;;
5704;SDS011;2877;48.238;11.160;2022-09-09T17:21:59;1.63;;;0.77;;
5704;SDS011;2877;48.238;11.160;2022-09-09T17:24:25;2.93;;;0.97;;
5704;SDS011;2877;48.238;11.160;2022-09-09T17:26:53;1.27;;;0.80;;
5704;SDS011;2877;48.238;11.160;2022-09-09T17:29:19;0.80;;;0.80;;
5704;SDS011;2877;48.238;11.160;2022-09-09T17:31:44;2.30;;;1.00;;